sensor_id;sensor_type;location;lat;lon;timestamp;P1;durP1;ratioP1;P2;durP2;ratioP2
13222;SDS011;6676;45.192;5.722;2023-06-26T00:02:41;5.60;;;5.00;;
13222;SDS011;6676;45.192;5.722;2023-06-26T00:05:33;6.47;;;5.10;;
13222;SDS011;6676;45.192;5.722;2023-06-26T00:08:24;8.40;;;5.28;;
13222;SDS011;6676;45.192;5.722;2023-06-26T00:11:15;5.55;;;4.67;;
13222;SDS011;6676;45.192;5.722;2023-06-26T00:14:06;6.40;;;4.75;;
13222;SDS011;6676;45.192;5.722;2023-06-26T00:16:58;5.03;;;4.53;;
13222;SDS011;6676;45.192;5.722;2023-06-26T00:22:28;7.78;;;4.92;;
13222;SDS011;6676;45.192;5.722;2023-06-26T00:25:19;5.00;;;4.47;;
13222;SDS011;6676;45.192;5.722;2023-06-26T00:28:00;6.75;;;4.83;;
13222;SDS011;6676;45.192;5.722;2023-06-26T00:30:51;4.80;;;4.40;;
13222;SDS011;6676;45.192;5.722;2023-06-26T00:33:42;5.42;;;4.92;;
13222;SDS011;6676;45.192;5.722;2023-06-26T00:36:33;5.62;;;4.75;;
13222;SDS011;6676;45.192;5.722;2023-06-26T00:42:07;5.20;;;4.72;;
13222;SDS011;6676;45.192;5.722;2023-06-26T00:44:58;6.37;;;5.17;;
13222;SDS011;6676;45.192;5.722;2023-06-26T00:47:50;6.33;;;5.17;;
13222;SDS011;6676;45.192;5.722;2023-06-26T00:53:21;8.28;;;5.12;;
13222;SDS011;6676;45.192;5.722;2023-06-26T00:56:12;6.05;;;5.00;;
13222;SDS011;6676;45.192;5.722;2023-06-26T00:58:54;5.50;;;4.97;;
13222;SDS011;6676;45.192;5.722;2023-06-26T01:01:46;5.50;;;4.92;;
13222;SDS011;6676;45.192;5.722;2023-06-26T01:07:20;5.80;;;5.08;;
13222;SDS011;6676;45.192;5.722;2023-06-26T01:10:12;6.15;;;5.28;;
13222;SDS011;6676;45.192;5.722;2023-06-26T01:13:04;5.65;;;5.15;;
13222;SDS011;6676;45.192;5.722;2023-06-26T01:15:56;5.83;;;5.15;;
13222;SDS011;6676;45.192;5.722;2023-06-26T01:18:48;5.87;;;5.37;;
13222;SDS011;6676;45.192;5.722;2023-06-26T01:21:42;5.40;;;4.90;;
13222;SDS011;6676;45.192;5.722;2023-06-26T01:24:35;5.67;;;4.87;;
13222;SDS011;6676;45.192;5.722;2023-06-26T01:27:29;5.72;;;4.83;;
13222;SDS011;6676;45.192;5.722;2023-06-26T01:30:21;6.08;;;5.58;;
13222;SDS011;6676;45.192;5.722;2023-06-26T01:33:15;5.70;;;5.08;;
13222;SDS011;6676;45.192;5.722;2023-06-26T01:36:07;6.60;;;5.53;;
13222;SDS011;6676;45.192;5.722;2023-06-26T01:39:00;5.83;;;5.22;;
13222;SDS011;6676;45.192;5.722;2023-06-26T01:41:52;6.20;;;5.37;;
13222;SDS011;6676;45.192;5.722;2023-06-26T01:44:45;5.97;;;5.20;;
13222;SDS011;6676;45.192;5.722;2023-06-26T01:47:37;7.85;;;5.87;;
13222;SDS011;6676;45.192;5.722;2023-06-26T01:53:10;6.37;;;5.30;;
13222;SDS011;6676;45.192;5.722;2023-06-26T01:56:05;5.17;;;4.78;;
13222;SDS011;6676;45.192;5.722;2023-06-26T01:58:58;6.30;;;5.70;;
13222;SDS011;6676;45.192;5.722;2023-06-26T02:04:34;8.18;;;5.85;;
13222;SDS011;6676;45.192;5.722;2023-06-26T02:07:26;6.20;;;5.55;;
13222;SDS011;6676;45.192;5.722;2023-06-26T02:10:17;6.15;;;5.55;;
13222;SDS011;6676;45.192;5.722;2023-06-26T02:15:51;6.28;;;5.60;;
13222;SDS011;6676;45.192;5.722;2023-06-26T02:18:42;6.85;;;6.10;;
13222;SDS011;6676;45.192;5.722;2023-06-26T02:24:13;6.53;;;5.92;;
13222;SDS011;6676;45.192;5.722;2023-06-26T02:27:05;6.25;;;5.65;;
13222;SDS011;6676;45.192;5.722;2023-06-26T02:29:56;9.78;;;6.10;;
13222;SDS011;6676;45.192;5.722;2023-06-26T02:32:48;6.17;;;5.58;;
13222;SDS011;6676;45.192;5.722;2023-06-26T02:35:40;6.28;;;5.70;;
13222;SDS011;6676;45.192;5.722;2023-06-26T02:38:31;6.55;;;5.85;;
13222;SDS011;6676;45.192;5.722;2023-06-26T02:41:22;6.28;;;5.22;;
13222;SDS011;6676;45.192;5.722;2023-06-26T02:44:14;6.53;;;5.87;;
13222;SDS011;6676;45.192;5.722;2023-06-26T02:47:06;7.08;;;5.60;;
13222;SDS011;6676;45.192;5.722;2023-06-26T02:49:59;6.15;;;5.42;;
13222;SDS011;6676;45.192;5.722;2023-06-26T02:52:52;5.80;;;5.20;;
13222;SDS011;6676;45.192;5.722;2023-06-26T02:58:27;7.42;;;5.60;;
13222;SDS011;6676;45.192;5.722;2023-06-26T03:01:18;6.25;;;5.62;;
13222;SDS011;6676;45.192;5.722;2023-06-26T03:04:10;7.10;;;5.85;;
13222;SDS011;6676;45.192;5.722;2023-06-26T03:07:03;6.92;;;5.42;;
13222;SDS011;6676;45.192;5.722;2023-06-26T03:12:36;6.72;;;6.05;;
13222;SDS011;6676;45.192;5.722;2023-06-26T03:15:27;6.80;;;5.95;;
13222;SDS011;6676;45.192;5.722;2023-06-26T03:18:18;6.87;;;5.37;;
13222;SDS011;6676;45.192;5.722;2023-06-26T03:21:10;7.03;;;5.72;;
13222;SDS011;6676;45.192;5.722;2023-06-26T03:24:01;6.33;;;5.83;;
13222;SDS011;6676;45.192;5.722;2023-06-26T03:26:53;6.00;;;5.40;;
13222;SDS011;6676;45.192;5.722;2023-06-26T03:32:24;6.45;;;5.67;;
13222;SDS011;6676;45.192;5.722;2023-06-26T03:35:15;6.50;;;5.90;;
13222;SDS011;6676;45.192;5.722;2023-06-26T03:38:07;5.85;;;5.28;;
13222;SDS011;6676;45.192;5.722;2023-06-26T03:40:47;6.35;;;5.70;;
13222;SDS011;6676;45.192;5.722;2023-06-26T03:43:39;6.15;;;5.40;;
13222;SDS011;6676;45.192;5.722;2023-06-26T03:46:35;8.33;;;5.55;;
13222;SDS011;6676;45.192;5.722;2023-06-26T03:52:06;7.50;;;5.95;;
13222;SDS011;6676;45.192;5.722;2023-06-26T03:54:59;6.37;;;5.58;;
13222;SDS011;6676;45.192;5.722;2023-06-26T03:57:53;7.90;;;5.92;;
13222;SDS011;6676;45.192;5.722;2023-06-26T04:00:44;5.97;;;5.37;;
13222;SDS011;6676;45.192;5.722;2023-06-26T04:03:36;6.12;;;5.47;;
13222;SDS011;6676;45.192;5.722;2023-06-26T04:06:27;5.67;;;5.17;;
13222;SDS011;6676;45.192;5.722;2023-06-26T04:09:20;6.12;;;5.37;;
13222;SDS011;6676;45.192;5.722;2023-06-26T04:12:11;7.17;;;5.83;;
13222;SDS011;6676;45.192;5.722;2023-06-26T04:15:04;6.10;;;5.50;;
13222;SDS011;6676;45.192;5.722;2023-06-26T04:17:57;6.60;;;5.90;;
13222;SDS011;6676;45.192;5.722;2023-06-26T04:21:04;6.58;;;5.97;;
13222;SDS011;6676;45.192;5.722;2023-06-26T04:24:00;6.20;;;5.60;;
13222;SDS011;6676;45.192;5.722;2023-06-26T04:29:29;6.05;;;5.50;;
13222;SDS011;6676;45.192;5.722;2023-06-26T04:32:20;6.92;;;5.53;;
13222;SDS011;6676;45.192;5.722;2023-06-26T04:35:12;6.92;;;5.70;;
13222;SDS011;6676;45.192;5.722;2023-06-26T04:38:03;6.22;;;5.62;;
13222;SDS011;6676;45.192;5.722;2023-06-26T04:40:54;6.37;;;5.78;;
13222;SDS011;6676;45.192;5.722;2023-06-26T04:43:45;6.80;;;5.87;;
13222;SDS011;6676;45.192;5.722;2023-06-26T04:46:37;8.38;;;5.85;;
13222;SDS011;6676;45.192;5.722;2023-06-26T04:52:08;7.08;;;6.25;;
13222;SDS011;6676;45.192;5.722;2023-06-26T04:57:40;6.67;;;5.80;;
13222;SDS011;6676;45.192;5.722;2023-06-26T05:03:09;6.53;;;5.85;;
13222;SDS011;6676;45.192;5.722;2023-06-26T05:06:02;6.47;;;5.70;;
13222;SDS011;6676;45.192;5.722;2023-06-26T05:08:55;7.42;;;5.95;;
13222;SDS011;6676;45.192;5.722;2023-06-26T05:11:46;5.58;;;5.08;;
13222;SDS011;6676;45.192;5.722;2023-06-26T05:17:15;6.15;;;5.47;;
13222;SDS011;6676;45.192;5.722;2023-06-26T05:20:08;6.83;;;5.72;;
13222;SDS011;6676;45.192;5.722;2023-06-26T05:23:00;9.48;;;5.90;;
13222;SDS011;6676;45.192;5.722;2023-06-26T05:25:53;7.40;;;6.12;;
13222;SDS011;6676;45.192;5.722;2023-06-26T05:28:45;6.78;;;6.17;;
13222;SDS011;6676;45.192;5.722;2023-06-26T05:34:16;9.23;;;6.83;;
13222;SDS011;6676;45.192;5.722;2023-06-26T05:37:10;8.13;;;6.53;;
13222;SDS011;6676;45.192;5.722;2023-06-26T05:40:05;7.35;;;6.65;;
13222;SDS011;6676;45.192;5.722;2023-06-26T05:43:00;9.23;;;6.40;;
13222;SDS011;6676;45.192;5.722;2023-06-26T05:45:52;6.80;;;6.08;;
13222;SDS011;6676;45.192;5.722;2023-06-26T05:48:43;7.40;;;6.65;;
13222;SDS011;6676;45.192;5.722;2023-06-26T05:51:35;7.85;;;6.50;;
13222;SDS011;6676;45.192;5.722;2023-06-26T05:54:16;7.47;;;6.22;;
13222;SDS011;6676;45.192;5.722;2023-06-26T05:57:08;10.03;;;6.78;;
13222;SDS011;6676;45.192;5.722;2023-06-26T06:00:02;9.75;;;6.70;;
13222;SDS011;6676;45.192;5.722;2023-06-26T06:02:59;8.13;;;6.75;;
13222;SDS011;6676;45.192;5.722;2023-06-26T06:05:50;7.25;;;6.55;;
13222;SDS011;6676;45.192;5.722;2023-06-26T06:08:41;9.55;;;6.70;;
13222;SDS011;6676;45.192;5.722;2023-06-26T06:11:34;6.75;;;6.05;;
13222;SDS011;6676;45.192;5.722;2023-06-26T06:14:25;7.28;;;6.15;;
13222;SDS011;6676;45.192;5.722;2023-06-26T06:17:16;7.17;;;6.08;;
13222;SDS011;6676;45.192;5.722;2023-06-26T06:20:09;6.72;;;6.08;;
13222;SDS011;6676;45.192;5.722;2023-06-26T06:23:01;8.50;;;6.92;;
13222;SDS011;6676;45.192;5.722;2023-06-26T06:25:52;7.28;;;6.42;;
13222;SDS011;6676;45.192;5.722;2023-06-26T06:28:44;7.65;;;6.10;;
13222;SDS011;6676;45.192;5.722;2023-06-26T06:31:35;13.28;;;11.70;;
13222;SDS011;6676;45.192;5.722;2023-06-26T06:34:26;7.25;;;6.28;;
13222;SDS011;6676;45.192;5.722;2023-06-26T06:37:18;8.85;;;6.83;;
13222;SDS011;6676;45.192;5.722;2023-06-26T06:40:10;8.60;;;6.42;;
13222;SDS011;6676;45.192;5.722;2023-06-26T06:43:02;7.70;;;6.12;;
13222;SDS011;6676;45.192;5.722;2023-06-26T06:48:33;7.90;;;5.87;;
13222;SDS011;6676;45.192;5.722;2023-06-26T06:51:24;7.85;;;6.40;;
13222;SDS011;6676;45.192;5.722;2023-06-26T06:54:16;7.33;;;5.87;;
13222;SDS011;6676;45.192;5.722;2023-06-26T06:57:08;7.28;;;5.70;;
13222;SDS011;6676;45.192;5.722;2023-06-26T06:59:59;6.92;;;6.05;;
13222;SDS011;6676;45.192;5.722;2023-06-26T07:02:58;9.33;;;5.80;;
13222;SDS011;6676;45.192;5.722;2023-06-26T07:05:50;6.30;;;5.70;;
13222;SDS011;6676;45.192;5.722;2023-06-26T07:08:42;6.20;;;5.60;;
13222;SDS011;6676;45.192;5.722;2023-06-26T07:11:34;6.15;;;5.35;;
13222;SDS011;6676;45.192;5.722;2023-06-26T07:14:25;6.67;;;5.80;;
13222;SDS011;6676;45.192;5.722;2023-06-26T07:17:17;6.70;;;5.50;;
13222;SDS011;6676;45.192;5.722;2023-06-26T07:20:09;7.58;;;5.60;;
13222;SDS011;6676;45.192;5.722;2023-06-26T07:23:02;6.85;;;5.80;;
13222;SDS011;6676;45.192;5.722;2023-06-26T07:25:54;6.22;;;5.62;;
13222;SDS011;6676;45.192;5.722;2023-06-26T07:28:45;6.80;;;5.37;;
13222;SDS011;6676;45.192;5.722;2023-06-26T07:31:38;7.20;;;5.95;;
13222;SDS011;6676;45.192;5.722;2023-06-26T07:37:15;7.58;;;5.83;;
13222;SDS011;6676;45.192;5.722;2023-06-26T07:40:09;6.95;;;5.78;;
13222;SDS011;6676;45.192;5.722;2023-06-26T07:43:01;11.33;;;7.45;;
13222;SDS011;6676;45.192;5.722;2023-06-26T07:45:52;7.42;;;5.92;;
13222;SDS011;6676;45.192;5.722;2023-06-26T07:48:45;6.40;;;5.75;;
13222;SDS011;6676;45.192;5.722;2023-06-26T07:51:37;7.33;;;5.95;;
13222;SDS011;6676;45.192;5.722;2023-06-26T07:54:28;8.90;;;5.60;;
13222;SDS011;6676;45.192;5.722;2023-06-26T07:57:20;7.92;;;5.37;;
13222;SDS011;6676;45.192;5.722;2023-06-26T08:00:18;7.03;;;6.30;;
13222;SDS011;6676;45.192;5.722;2023-06-26T08:03:12;6.00;;;5.50;;
13222;SDS011;6676;45.192;5.722;2023-06-26T08:06:04;8.78;;;6.50;;
13222;SDS011;6676;45.192;5.722;2023-06-26T08:08:57;7.17;;;6.20;;
13222;SDS011;6676;45.192;5.722;2023-06-26T08:11:49;7.95;;;6.28;;
13222;SDS011;6676;45.192;5.722;2023-06-26T08:14:40;7.25;;;6.45;;
13222;SDS011;6676;45.192;5.722;2023-06-26T08:17:31;7.15;;;6.20;;
13222;SDS011;6676;45.192;5.722;2023-06-26T08:20:22;7.45;;;6.35;;
13222;SDS011;6676;45.192;5.722;2023-06-26T08:23:14;7.15;;;5.95;;
13222;SDS011;6676;45.192;5.722;2023-06-26T08:26:05;7.05;;;6.33;;
13222;SDS011;6676;45.192;5.722;2023-06-26T08:28:57;8.38;;;6.22;;
13222;SDS011;6676;45.192;5.722;2023-06-26T08:31:48;8.08;;;6.30;;
13222;SDS011;6676;45.192;5.722;2023-06-26T08:34:39;6.67;;;5.97;;
13222;SDS011;6676;45.192;5.722;2023-06-26T08:37:31;6.97;;;5.70;;
13222;SDS011;6676;45.192;5.722;2023-06-26T08:40:22;7.47;;;6.75;;
13222;SDS011;6676;45.192;5.722;2023-06-26T08:43:15;6.60;;;5.95;;
13222;SDS011;6676;45.192;5.722;2023-06-26T08:46:06;6.70;;;5.95;;
13222;SDS011;6676;45.192;5.722;2023-06-26T08:49:01;6.30;;;5.70;;
13222;SDS011;6676;45.192;5.722;2023-06-26T08:51:56;5.62;;;5.12;;
13222;SDS011;6676;45.192;5.722;2023-06-26T08:54:50;6.55;;;5.78;;
13222;SDS011;6676;45.192;5.722;2023-06-26T08:57:47;7.33;;;5.97;;
13222;SDS011;6676;45.192;5.722;2023-06-26T09:00:38;8.68;;;6.35;;
13222;SDS011;6676;45.192;5.722;2023-06-26T09:03:31;6.50;;;5.87;;
13222;SDS011;6676;45.192;5.722;2023-06-26T09:06:23;6.08;;;5.47;;
13222;SDS011;6676;45.192;5.722;2023-06-26T09:09:14;6.67;;;5.65;;
13222;SDS011;6676;45.192;5.722;2023-06-26T09:12:07;7.95;;;5.97;;
13222;SDS011;6676;45.192;5.722;2023-06-26T09:15:00;7.95;;;6.00;;
13222;SDS011;6676;45.192;5.722;2023-06-26T09:17:53;7.37;;;5.80;;
13222;SDS011;6676;45.192;5.722;2023-06-26T09:20:47;7.30;;;6.60;;
13222;SDS011;6676;45.192;5.722;2023-06-26T09:23:40;6.85;;;6.10;;
13222;SDS011;6676;45.192;5.722;2023-06-26T09:26:32;7.12;;;6.00;;
13222;SDS011;6676;45.192;5.722;2023-06-26T09:29:26;6.28;;;5.75;;
13222;SDS011;6676;45.192;5.722;2023-06-26T09:32:18;6.53;;;5.53;;
13222;SDS011;6676;45.192;5.722;2023-06-26T09:35:10;7.45;;;6.05;;
13222;SDS011;6676;45.192;5.722;2023-06-26T09:38:04;11.75;;;5.85;;
13222;SDS011;6676;45.192;5.722;2023-06-26T09:40:55;6.65;;;6.00;;
13222;SDS011;6676;45.192;5.722;2023-06-26T09:43:47;6.35;;;5.85;;
13222;SDS011;6676;45.192;5.722;2023-06-26T09:46:39;8.78;;;6.53;;
13222;SDS011;6676;45.192;5.722;2023-06-26T09:49:30;9.88;;;6.42;;
13222;SDS011;6676;45.192;5.722;2023-06-26T09:52:25;7.83;;;6.10;;
13222;SDS011;6676;45.192;5.722;2023-06-26T09:55:18;8.33;;;6.83;;
13222;SDS011;6676;45.192;5.722;2023-06-26T10:01:13;11.93;;;10.72;;
13222;SDS011;6676;45.192;5.722;2023-06-26T10:04:05;7.22;;;6.55;;
13222;SDS011;6676;45.192;5.722;2023-06-26T10:06:56;8.23;;;5.72;;
13222;SDS011;6676;45.192;5.722;2023-06-26T10:09:50;7.05;;;5.70;;
13222;SDS011;6676;45.192;5.722;2023-06-26T10:12:43;7.85;;;5.75;;
13222;SDS011;6676;45.192;5.722;2023-06-26T10:15:40;7.33;;;5.33;;
13222;SDS011;6676;45.192;5.722;2023-06-26T10:18:34;7.60;;;5.45;;
13222;SDS011;6676;45.192;5.722;2023-06-26T10:21:29;8.15;;;5.30;;
13222;SDS011;6676;45.192;5.722;2023-06-26T10:24:23;6.03;;;5.42;;
13222;SDS011;6676;45.192;5.722;2023-06-26T10:27:17;5.37;;;4.87;;
13222;SDS011;6676;45.192;5.722;2023-06-26T10:30:11;5.70;;;5.17;;
13222;SDS011;6676;45.192;5.722;2023-06-26T10:33:06;6.40;;;5.85;;
13222;SDS011;6676;45.192;5.722;2023-06-26T10:36:12;5.70;;;5.10;;
13222;SDS011;6676;45.192;5.722;2023-06-26T10:39:09;5.90;;;5.30;;
13222;SDS011;6676;45.192;5.722;2023-06-26T10:42:08;6.92;;;5.33;;
13222;SDS011;6676;45.192;5.722;2023-06-26T10:44:59;5.80;;;5.17;;
13222;SDS011;6676;45.192;5.722;2023-06-26T10:48:00;6.17;;;5.42;;
13222;SDS011;6676;45.192;5.722;2023-06-26T10:50:52;6.30;;;4.92;;
13222;SDS011;6676;45.192;5.722;2023-06-26T10:53:44;5.30;;;4.78;;
13222;SDS011;6676;45.192;5.722;2023-06-26T10:59:38;6.45;;;5.05;;
13222;SDS011;6676;45.192;5.722;2023-06-26T11:02:29;5.85;;;4.80;;
13222;SDS011;6676;45.192;5.722;2023-06-26T11:05:33;5.92;;;5.25;;
13222;SDS011;6676;45.192;5.722;2023-06-26T11:08:44;5.75;;;5.25;;
13222;SDS011;6676;45.192;5.722;2023-06-26T11:14:50;7.87;;;5.60;;
13222;SDS011;6676;45.192;5.722;2023-06-26T11:17:42;7.15;;;4.65;;
13222;SDS011;6676;45.192;5.722;2023-06-26T11:20:34;8.08;;;5.08;;
13222;SDS011;6676;45.192;5.722;2023-06-26T11:23:29;6.45;;;4.95;;
13222;SDS011;6676;45.192;5.722;2023-06-26T11:26:28;5.17;;;4.47;;
13222;SDS011;6676;45.192;5.722;2023-06-26T11:29:19;5.22;;;4.53;;
13222;SDS011;6676;45.192;5.722;2023-06-26T11:32:11;8.83;;;4.45;;
13222;SDS011;6676;45.192;5.722;2023-06-26T11:35:04;5.65;;;4.83;;
13222;SDS011;6676;45.192;5.722;2023-06-26T11:38:01;6.25;;;4.08;;
13222;SDS011;6676;45.192;5.722;2023-06-26T11:40:53;5.50;;;4.92;;
13222;SDS011;6676;45.192;5.722;2023-06-26T11:46:59;5.53;;;4.67;;
13222;SDS011;6676;45.192;5.722;2023-06-26T11:49:51;5.80;;;5.20;;
13222;SDS011;6676;45.192;5.722;2023-06-26T11:52:43;8.65;;;4.45;;
13222;SDS011;6676;45.192;5.722;2023-06-26T11:55:41;6.87;;;5.22;;
13222;SDS011;6676;45.192;5.722;2023-06-26T11:58:33;5.97;;;4.55;;
13222;SDS011;6676;45.192;5.722;2023-06-26T12:01:25;10.05;;;4.28;;
13222;SDS011;6676;45.192;5.722;2023-06-26T12:04:17;6.28;;;4.40;;
13222;SDS011;6676;45.192;5.722;2023-06-26T12:07:10;6.95;;;5.08;;
13222;SDS011;6676;45.192;5.722;2023-06-26T12:10:02;7.12;;;5.03;;
13222;SDS011;6676;45.192;5.722;2023-06-26T12:12:55;12.43;;;5.10;;
13222;SDS011;6676;45.192;5.722;2023-06-26T12:15:47;6.55;;;5.35;;
13222;SDS011;6676;45.192;5.722;2023-06-26T12:18:39;6.58;;;5.35;;
13222;SDS011;6676;45.192;5.722;2023-06-26T12:21:46;7.40;;;5.50;;
13222;SDS011;6676;45.192;5.722;2023-06-26T12:24:42;7.15;;;4.70;;
13222;SDS011;6676;45.192;5.722;2023-06-26T12:27:35;6.05;;;4.30;;
13222;SDS011;6676;45.192;5.722;2023-06-26T12:30:26;7.97;;;5.65;;
13222;SDS011;6676;45.192;5.722;2023-06-26T12:33:18;7.28;;;5.35;;
13222;SDS011;6676;45.192;5.722;2023-06-26T12:36:11;5.85;;;4.83;;
13222;SDS011;6676;45.192;5.722;2023-06-26T12:39:04;5.78;;;5.17;;
13222;SDS011;6676;45.192;5.722;2023-06-26T12:41:57;5.37;;;4.42;;
13222;SDS011;6676;45.192;5.722;2023-06-26T12:44:52;5.62;;;5.03;;
13222;SDS011;6676;45.192;5.722;2023-06-26T12:47:45;8.23;;;4.80;;
13222;SDS011;6676;45.192;5.722;2023-06-26T12:50:38;6.03;;;5.12;;
13222;SDS011;6676;45.192;5.722;2023-06-26T12:53:34;7.22;;;5.60;;
13222;SDS011;6676;45.192;5.722;2023-06-26T12:56:25;7.92;;;5.37;;
13222;SDS011;6676;45.192;5.722;2023-06-26T12:59:17;5.75;;;4.65;;
13222;SDS011;6676;45.192;5.722;2023-06-26T13:02:09;6.35;;;5.10;;
13222;SDS011;6676;45.192;5.722;2023-06-26T13:05:00;5.50;;;5.00;;
13222;SDS011;6676;45.192;5.722;2023-06-26T13:07:53;7.08;;;4.87;;
13222;SDS011;6676;45.192;5.722;2023-06-26T13:10:44;5.15;;;4.53;;
13222;SDS011;6676;45.192;5.722;2023-06-26T13:13:42;7.25;;;5.40;;
13222;SDS011;6676;45.192;5.722;2023-06-26T13:16:36;8.73;;;4.35;;
13222;SDS011;6676;45.192;5.722;2023-06-26T13:19:28;6.17;;;4.67;;
13222;SDS011;6676;45.192;5.722;2023-06-26T13:22:19;6.28;;;5.03;;
13222;SDS011;6676;45.192;5.722;2023-06-26T13:25:11;5.92;;;5.17;;
13222;SDS011;6676;45.192;5.722;2023-06-26T13:28:02;7.37;;;4.47;;
13222;SDS011;6676;45.192;5.722;2023-06-26T13:30:53;5.80;;;5.12;;
13222;SDS011;6676;45.192;5.722;2023-06-26T13:33:46;5.62;;;5.00;;
13222;SDS011;6676;45.192;5.722;2023-06-26T13:36:37;4.65;;;4.17;;
13222;SDS011;6676;45.192;5.722;2023-06-26T13:39:29;7.15;;;5.40;;
13222;SDS011;6676;45.192;5.722;2023-06-26T13:42:20;5.95;;;5.08;;
13222;SDS011;6676;45.192;5.722;2023-06-26T13:45:15;7.17;;;5.67;;
13222;SDS011;6676;45.192;5.722;2023-06-26T13:48:07;6.62;;;5.00;;
13222;SDS011;6676;45.192;5.722;2023-06-26T13:50:59;5.10;;;4.60;;
13222;SDS011;6676;45.192;5.722;2023-06-26T13:53:51;6.62;;;5.58;;
13222;SDS011;6676;45.192;5.722;2023-06-26T13:56:43;7.10;;;4.80;;
13222;SDS011;6676;45.192;5.722;2023-06-26T13:59:36;5.40;;;4.85;;
13222;SDS011;6676;45.192;5.722;2023-06-26T14:02:29;6.28;;;5.15;;
13222;SDS011;6676;45.192;5.722;2023-06-26T14:05:24;5.67;;;5.15;;
13222;SDS011;6676;45.192;5.722;2023-06-26T14:08:16;7.47;;;4.70;;
13222;SDS011;6676;45.192;5.722;2023-06-26T14:11:08;8.48;;;4.83;;
13222;SDS011;6676;45.192;5.722;2023-06-26T14:14:01;5.37;;;4.87;;
13222;SDS011;6676;45.192;5.722;2023-06-26T14:16:58;5.62;;;4.87;;
13222;SDS011;6676;45.192;5.722;2023-06-26T14:19:51;5.97;;;4.90;;
13222;SDS011;6676;45.192;5.722;2023-06-26T14:22:43;5.78;;;4.75;;
13222;SDS011;6676;45.192;5.722;2023-06-26T14:25:34;8.78;;;4.90;;
13222;SDS011;6676;45.192;5.722;2023-06-26T14:28:25;6.87;;;4.83;;
13222;SDS011;6676;45.192;5.722;2023-06-26T14:31:17;7.28;;;5.25;;
13222;SDS011;6676;45.192;5.722;2023-06-26T14:34:11;6.62;;;5.42;;
13222;SDS011;6676;45.192;5.722;2023-06-26T14:37:03;4.40;;;3.30;;
13222;SDS011;6676;45.192;5.722;2023-06-26T14:39:55;5.08;;;4.42;;
13222;SDS011;6676;45.192;5.722;2023-06-26T14:42:48;6.08;;;5.35;;
13222;SDS011;6676;45.192;5.722;2023-06-26T14:45:41;6.12;;;5.00;;
13222;SDS011;6676;45.192;5.722;2023-06-26T14:48:33;4.53;;;4.08;;
13222;SDS011;6676;45.192;5.722;2023-06-26T14:51:24;4.83;;;4.22;;
13222;SDS011;6676;45.192;5.722;2023-06-26T14:54:16;4.72;;;4.33;;
13222;SDS011;6676;45.192;5.722;2023-06-26T14:57:07;5.55;;;4.87;;
13222;SDS011;6676;45.192;5.722;2023-06-26T14:59:59;5.50;;;4.92;;
13222;SDS011;6676;45.192;5.722;2023-06-26T15:02:51;4.65;;;3.87;;
13222;SDS011;6676;45.192;5.722;2023-06-26T15:05:44;5.42;;;4.40;;
13222;SDS011;6676;45.192;5.722;2023-06-26T15:08:36;6.22;;;4.78;;
13222;SDS011;6676;45.192;5.722;2023-06-26T15:11:28;6.15;;;5.03;;
13222;SDS011;6676;45.192;5.722;2023-06-26T15:14:20;5.10;;;4.60;;
13222;SDS011;6676;45.192;5.722;2023-06-26T15:17:11;5.30;;;4.80;;
13222;SDS011;6676;45.192;5.722;2023-06-26T15:20:03;4.92;;;4.42;;
13222;SDS011;6676;45.192;5.722;2023-06-26T15:22:58;7.30;;;5.17;;
13222;SDS011;6676;45.192;5.722;2023-06-26T15:25:49;6.67;;;4.75;;
13222;SDS011;6676;45.192;5.722;2023-06-26T15:28:41;6.53;;;4.03;;
13222;SDS011;6676;45.192;5.722;2023-06-26T15:31:32;7.90;;;4.78;;
13222;SDS011;6676;45.192;5.722;2023-06-26T15:34:25;8.33;;;5.20;;
13222;SDS011;6676;45.192;5.722;2023-06-26T15:37:17;6.25;;;4.22;;
13222;SDS011;6676;45.192;5.722;2023-06-26T15:40:11;4.87;;;4.37;;
13222;SDS011;6676;45.192;5.722;2023-06-26T15:43:03;5.58;;;5.08;;
13222;SDS011;6676;45.192;5.722;2023-06-26T15:45:54;6.20;;;4.62;;
13222;SDS011;6676;45.192;5.722;2023-06-26T15:48:46;7.55;;;5.10;;
13222;SDS011;6676;45.192;5.722;2023-06-26T15:51:37;5.35;;;4.85;;
13222;SDS011;6676;45.192;5.722;2023-06-26T15:54:30;4.20;;;3.80;;
13222;SDS011;6676;45.192;5.722;2023-06-26T15:57:48;5.45;;;4.95;;
13222;SDS011;6676;45.192;5.722;2023-06-26T16:00:49;5.15;;;4.08;;
13222;SDS011;6676;45.192;5.722;2023-06-26T16:03:41;5.25;;;4.30;;
13222;SDS011;6676;45.192;5.722;2023-06-26T16:06:32;4.72;;;4.30;;
13222;SDS011;6676;45.192;5.722;2023-06-26T16:09:24;5.30;;;4.58;;
13222;SDS011;6676;45.192;5.722;2023-06-26T16:12:36;9.40;;;4.55;;
13222;SDS011;6676;45.192;5.722;2023-06-26T16:15:27;4.90;;;3.17;;
13222;SDS011;6676;45.192;5.722;2023-06-26T16:18:18;5.05;;;4.35;;
13222;SDS011;6676;45.192;5.722;2023-06-26T16:21:09;4.70;;;3.80;;
13222;SDS011;6676;45.192;5.722;2023-06-26T16:24:00;6.42;;;3.80;;
13222;SDS011;6676;45.192;5.722;2023-06-26T16:26:52;6.78;;;4.55;;
13222;SDS011;6676;45.192;5.722;2023-06-26T16:29:44;5.50;;;4.37;;
13222;SDS011;6676;45.192;5.722;2023-06-26T16:35:14;5.20;;;4.67;;
13222;SDS011;6676;45.192;5.722;2023-06-26T16:38:06;8.10;;;4.37;;
13222;SDS011;6676;45.192;5.722;2023-06-26T16:40:59;5.75;;;4.22;;
13222;SDS011;6676;45.192;5.722;2023-06-26T16:43:51;4.85;;;4.00;;
13222;SDS011;6676;45.192;5.722;2023-06-26T16:46:48;4.45;;;4.05;;
13222;SDS011;6676;45.192;5.722;2023-06-26T16:49:49;6.28;;;4.20;;
13222;SDS011;6676;45.192;5.722;2023-06-26T16:52:43;3.80;;;3.25;;
13222;SDS011;6676;45.192;5.722;2023-06-26T16:55:34;6.97;;;4.47;;
13222;SDS011;6676;45.192;5.722;2023-06-26T16:58:27;5.78;;;4.28;;
13222;SDS011;6676;45.192;5.722;2023-06-26T17:01:22;4.22;;;3.83;;
13222;SDS011;6676;45.192;5.722;2023-06-26T17:04:22;4.90;;;3.40;;
13222;SDS011;6676;45.192;5.722;2023-06-26T17:07:14;6.47;;;4.90;;
13222;SDS011;6676;45.192;5.722;2023-06-26T17:10:06;6.35;;;4.28;;
13222;SDS011;6676;45.192;5.722;2023-06-26T17:13:05;5.22;;;4.00;;
13222;SDS011;6676;45.192;5.722;2023-06-26T17:16:10;4.50;;;4.00;;
13222;SDS011;6676;45.192;5.722;2023-06-26T17:19:05;5.70;;;3.87;;
13222;SDS011;6676;45.192;5.722;2023-06-26T17:21:56;4.80;;;4.30;;
13222;SDS011;6676;45.192;5.722;2023-06-26T17:24:48;4.80;;;4.08;;
13222;SDS011;6676;45.192;5.722;2023-06-26T17:30:50;5.28;;;4.35;;
13222;SDS011;6676;45.192;5.722;2023-06-26T17:33:42;5.40;;;4.17;;
13222;SDS011;6676;45.192;5.722;2023-06-26T17:36:33;4.83;;;3.77;;
13222;SDS011;6676;45.192;5.722;2023-06-26T17:39:24;4.05;;;3.33;;
13222;SDS011;6676;45.192;5.722;2023-06-26T17:42:16;6.87;;;3.95;;
13222;SDS011;6676;45.192;5.722;2023-06-26T17:45:13;5.72;;;4.00;;
13222;SDS011;6676;45.192;5.722;2023-06-26T17:48:06;4.78;;;4.28;;
13222;SDS011;6676;45.192;5.722;2023-06-26T17:50:57;5.92;;;3.90;;
13222;SDS011;6676;45.192;5.722;2023-06-26T17:53:49;5.22;;;3.47;;
13222;SDS011;6676;45.192;5.722;2023-06-26T17:56:41;5.65;;;4.28;;
13222;SDS011;6676;45.192;5.722;2023-06-26T17:59:34;4.47;;;3.77;;
13222;SDS011;6676;45.192;5.722;2023-06-26T18:02:26;5.00;;;3.62;;
13222;SDS011;6676;45.192;5.722;2023-06-26T18:05:18;5.80;;;3.77;;
13222;SDS011;6676;45.192;5.722;2023-06-26T18:08:09;4.97;;;3.62;;
13222;SDS011;6676;45.192;5.722;2023-06-26T18:11:01;4.22;;;2.95;;
13222;SDS011;6676;45.192;5.722;2023-06-26T18:13:41;5.00;;;3.90;;
13222;SDS011;6676;45.192;5.722;2023-06-26T18:16:32;4.20;;;3.80;;
13222;SDS011;6676;45.192;5.722;2023-06-26T18:19:23;5.85;;;3.67;;
13222;SDS011;6676;45.192;5.722;2023-06-26T18:22:15;5.37;;;3.50;;
13222;SDS011;6676;45.192;5.722;2023-06-26T18:25:07;4.05;;;3.55;;
13222;SDS011;6676;45.192;5.722;2023-06-26T18:27:59;4.90;;;3.70;;
13222;SDS011;6676;45.192;5.722;2023-06-26T18:30:50;4.78;;;3.60;;
13222;SDS011;6676;45.192;5.722;2023-06-26T18:33:41;3.70;;;3.40;;
13222;SDS011;6676;45.192;5.722;2023-06-26T18:36:32;3.60;;;3.10;;
13222;SDS011;6676;45.192;5.722;2023-06-26T18:39:26;3.45;;;3.15;;
13222;SDS011;6676;45.192;5.722;2023-06-26T18:42:17;4.22;;;3.45;;
13222;SDS011;6676;45.192;5.722;2023-06-26T18:45:12;6.37;;;3.62;;
13222;SDS011;6676;45.192;5.722;2023-06-26T18:48:11;6.60;;;3.50;;